sensor_id;sensor_type;location;lat;lon;timestamp;P1;durP1;ratioP1;P2;durP2;ratioP2
74328;SDS011;62745;51.060;13.786;2022-11-20T00:00:20;19.50;;;7.95;;
74328;SDS011;62745;51.060;13.786;2022-11-20T00:02:45;22.95;;;9.25;;
74328;SDS011;62745;51.060;13.786;2022-11-20T00:05:10;22.47;;;8.90;;
74328;SDS011;62745;51.060;13.786;2022-11-20T00:07:35;22.20;;;9.47;;
74328;SDS011;62745;51.060;13.786;2022-11-20T00:10:01;23.83;;;9.10;;
74328;SDS011;62745;51.060;13.786;2022-11-20T00:12:26;23.00;;;9.20;;
74328;SDS011;62745;51.060;13.786;2022-11-20T00:14:51;19.87;;;8.60;;
74328;SDS011;62745;51.060;13.786;2022-11-20T00:17:17;18.60;;;8.60;;
74328;SDS011;62745;51.060;13.786;2022-11-20T00:19:42;17.90;;;7.90;;
74328;SDS011;62745;51.060;13.786;2022-11-20T00:22:07;20.83;;;8.93;;
74328;SDS011;62745;51.060;13.786;2022-11-20T00:24:33;22.90;;;8.63;;
74328;SDS011;62745;51.060;13.786;2022-11-20T00:26:58;20.00;;;8.60;;
74328;SDS011;62745;51.060;13.786;2022-11-20T00:29:23;24.70;;;10.17;;
74328;SDS011;62745;51.060;13.786;2022-11-20T00:31:48;21.17;;;9.20;;
74328;SDS011;62745;51.060;13.786;2022-11-20T00:34:14;21.80;;;9.40;;
74328;SDS011;62745;51.060;13.786;2022-11-20T00:36:39;19.97;;;8.87;;
74328;SDS011;62745;51.060;13.786;2022-11-20T00:39:04;26.37;;;10.27;;
74328;SDS011;62745;51.060;13.786;2022-11-20T00:41:30;25.33;;;9.27;;
74328;SDS011;62745;51.060;13.786;2022-11-20T00:43:55;27.38;;;10.27;;
74328;SDS011;62745;51.060;13.786;2022-11-20T00:46:22;21.88;;;9.73;;
74328;SDS011;62745;51.060;13.786;2022-11-20T00:48:49;19.67;;;8.00;;
74328;SDS011;62745;51.060;13.786;2022-11-20T00:51:15;22.00;;;7.90;;
74328;SDS011;62745;51.060;13.786;2022-11-20T00:53:44;18.02;;;8.00;;
74328;SDS011;62745;51.060;13.786;2022-11-20T00:56:10;17.58;;;8.18;;
74328;SDS011;62745;51.060;13.786;2022-11-20T00:58:38;21.63;;;8.52;;
74328;SDS011;62745;51.060;13.786;2022-11-20T01:01:09;23.83;;;8.90;;
74328;SDS011;62745;51.060;13.786;2022-11-20T01:03:37;22.48;;;9.85;;
74328;SDS011;62745;51.060;13.786;2022-11-20T01:06:05;25.60;;;10.32;;
74328;SDS011;62745;51.060;13.786;2022-11-20T01:11:25;26.80;;;9.68;;
74328;SDS011;62745;51.060;13.786;2022-11-20T01:13:55;24.63;;;9.73;;
74328;SDS011;62745;51.060;13.786;2022-11-20T01:16:23;21.58;;;8.60;;
74328;SDS011;62745;51.060;13.786;2022-11-20T01:18:52;23.85;;;9.13;;
74328;SDS011;62745;51.060;13.786;2022-11-20T01:23:49;21.73;;;8.52;;
74328;SDS011;62745;51.060;13.786;2022-11-20T01:26:16;18.38;;;8.20;;
74328;SDS011;62745;51.060;13.786;2022-11-20T01:28:49;20.48;;;9.63;;
74328;SDS011;62745;51.060;13.786;2022-11-20T01:31:16;25.02;;;9.23;;
74328;SDS011;62745;51.060;13.786;2022-11-20T01:33:46;23.58;;;9.18;;
74328;SDS011;62745;51.060;13.786;2022-11-20T01:36:13;22.10;;;9.15;;
74328;SDS011;62745;51.060;13.786;2022-11-20T01:38:40;24.27;;;9.35;;
74328;SDS011;62745;51.060;13.786;2022-11-20T01:41:06;21.65;;;9.38;;
74328;SDS011;62745;51.060;13.786;2022-11-20T01:43:32;24.63;;;8.82;;
74328;SDS011;62745;51.060;13.786;2022-11-20T01:46:03;21.65;;;9.27;;
74328;SDS011;62745;51.060;13.786;2022-11-20T01:48:52;17.05;;;7.65;;
74328;SDS011;62745;51.060;13.786;2022-11-20T01:51:35;19.45;;;7.72;;
74328;SDS011;62745;51.060;13.786;2022-11-20T01:54:06;21.42;;;8.23;;
74328;SDS011;62745;51.060;13.786;2022-11-20T01:56:37;22.33;;;8.25;;
74328;SDS011;62745;51.060;13.786;2022-11-20T01:59:05;20.25;;;8.18;;
74328;SDS011;62745;51.060;13.786;2022-11-20T02:01:33;23.25;;;9.02;;
74328;SDS011;62745;51.060;13.786;2022-11-20T02:03:58;19.90;;;8.20;;
74328;SDS011;62745;51.060;13.786;2022-11-20T02:06:26;20.95;;;8.75;;
74328;SDS011;62745;51.060;13.786;2022-11-20T02:11:21;25.80;;;8.87;;
74328;SDS011;62745;51.060;13.786;2022-11-20T02:13:47;21.55;;;8.85;;
74328;SDS011;62745;51.060;13.786;2022-11-20T02:16:21;20.58;;;8.68;;
74328;SDS011;62745;51.060;13.786;2022-11-20T02:18:50;19.23;;;8.23;;
74328;SDS011;62745;51.060;13.786;2022-11-20T02:24:16;20.05;;;8.00;;
74328;SDS011;62745;51.060;13.786;2022-11-20T02:29:16;21.08;;;7.50;;
74328;SDS011;62745;51.060;13.786;2022-11-20T02:31:44;26.45;;;9.00;;
74328;SDS011;62745;51.060;13.786;2022-11-20T02:34:10;19.65;;;8.77;;
74328;SDS011;62745;51.060;13.786;2022-11-20T02:36:36;22.08;;;8.80;;
74328;SDS011;62745;51.060;13.786;2022-11-20T02:39:04;19.00;;;8.43;;
74328;SDS011;62745;51.060;13.786;2022-11-20T02:41:34;21.83;;;8.45;;
74328;SDS011;62745;51.060;13.786;2022-11-20T02:44:01;17.55;;;7.72;;
74328;SDS011;62745;51.060;13.786;2022-11-20T02:46:27;21.27;;;8.55;;
74328;SDS011;62745;51.060;13.786;2022-11-20T02:48:52;21.17;;;7.70;;
74328;SDS011;62745;51.060;13.786;2022-11-20T02:51:30;18.63;;;7.77;;
74328;SDS011;62745;51.060;13.786;2022-11-20T02:53:56;21.20;;;8.05;;
74328;SDS011;62745;51.060;13.786;2022-11-20T02:56:21;22.10;;;9.43;;
74328;SDS011;62745;51.060;13.786;2022-11-20T02:58:46;17.20;;;8.17;;
74328;SDS011;62745;51.060;13.786;2022-11-20T03:01:12;19.70;;;8.57;;
74328;SDS011;62745;51.060;13.786;2022-11-20T03:03:37;24.35;;;10.50;;
74328;SDS011;62745;51.060;13.786;2022-11-20T03:06:03;24.35;;;9.20;;
74328;SDS011;62745;51.060;13.786;2022-11-20T03:08:28;24.50;;;9.55;;
74328;SDS011;62745;51.060;13.786;2022-11-20T03:10:53;18.10;;;7.10;;
74328;SDS011;62745;51.060;13.786;2022-11-20T03:13:19;18.53;;;7.37;;
74328;SDS011;62745;51.060;13.786;2022-11-20T03:15:44;24.40;;;9.50;;
74328;SDS011;62745;51.060;13.786;2022-11-20T03:18:09;19.83;;;7.77;;
74328;SDS011;62745;51.060;13.786;2022-11-20T03:20:35;25.43;;;9.03;;
74328;SDS011;62745;51.060;13.786;2022-11-20T03:23:00;22.83;;;8.77;;
74328;SDS011;62745;51.060;13.786;2022-11-20T03:25:26;21.00;;;8.25;;
74328;SDS011;62745;51.060;13.786;2022-11-20T03:27:51;18.63;;;7.37;;
74328;SDS011;62745;51.060;13.786;2022-11-20T03:30:17;21.85;;;7.88;;
74328;SDS011;62745;51.060;13.786;2022-11-20T03:32:42;18.70;;;7.22;;
74328;SDS011;62745;51.060;13.786;2022-11-20T03:35:08;23.55;;;9.45;;
74328;SDS011;62745;51.060;13.786;2022-11-20T03:37:34;19.45;;;7.90;;
74328;SDS011;62745;51.060;13.786;2022-11-20T03:39:59;21.88;;;7.95;;
74328;SDS011;62745;51.060;13.786;2022-11-20T03:42:24;22.10;;;7.40;;
74328;SDS011;62745;51.060;13.786;2022-11-20T03:45:09;19.35;;;6.97;;
74328;SDS011;62745;51.060;13.786;2022-11-20T03:47:34;23.58;;;7.68;;
74328;SDS011;62745;51.060;13.786;2022-11-20T03:53:12;24.40;;;8.07;;
74328;SDS011;62745;51.060;13.786;2022-11-20T03:58:45;18.30;;;7.97;;
74328;SDS011;62745;51.060;13.786;2022-11-20T04:03:40;19.67;;;8.02;;
74328;SDS011;62745;51.060;13.786;2022-11-20T04:06:07;20.08;;;7.70;;
74328;SDS011;62745;51.060;13.786;2022-11-20T04:08:34;24.92;;;9.88;;
74328;SDS011;62745;51.060;13.786;2022-11-20T04:11:13;19.55;;;8.02;;
74328;SDS011;62745;51.060;13.786;2022-11-20T04:13:56;20.02;;;8.38;;
74328;SDS011;62745;51.060;13.786;2022-11-20T04:16:24;16.83;;;7.07;;
74328;SDS011;62745;51.060;13.786;2022-11-20T04:18:54;19.85;;;7.57;;
74328;SDS011;62745;51.060;13.786;2022-11-20T04:21:20;16.67;;;7.15;;
74328;SDS011;62745;51.060;13.786;2022-11-20T04:23:47;20.15;;;8.38;;
74328;SDS011;62745;51.060;13.786;2022-11-20T04:26:12;19.35;;;8.45;;
74328;SDS011;62745;51.060;13.786;2022-11-20T04:28:37;21.40;;;8.03;;
74328;SDS011;62745;51.060;13.786;2022-11-20T04:31:08;22.83;;;7.40;;
74328;SDS011;62745;51.060;13.786;2022-11-20T04:33:39;22.20;;;7.90;;
74328;SDS011;62745;51.060;13.786;2022-11-20T04:36:10;17.65;;;6.75;;
74328;SDS011;62745;51.060;13.786;2022-11-20T04:38:37;17.63;;;7.50;;
74328;SDS011;62745;51.060;13.786;2022-11-20T04:41:06;17.42;;;7.18;;
74328;SDS011;62745;51.060;13.786;2022-11-20T04:43:33;19.30;;;7.05;;
74328;SDS011;62745;51.060;13.786;2022-11-20T04:45:59;18.60;;;7.38;;
74328;SDS011;62745;51.060;13.786;2022-11-20T04:48:28;19.40;;;7.88;;
74328;SDS011;62745;51.060;13.786;2022-11-20T04:50:54;19.35;;;7.38;;
74328;SDS011;62745;51.060;13.786;2022-11-20T04:53:19;19.98;;;6.97;;
74328;SDS011;62745;51.060;13.786;2022-11-20T04:55:46;18.27;;;7.22;;
74328;SDS011;62745;51.060;13.786;2022-11-20T04:58:11;19.90;;;7.20;;
74328;SDS011;62745;51.060;13.786;2022-11-20T05:00:37;18.80;;;7.05;;
74328;SDS011;62745;51.060;13.786;2022-11-20T05:03:03;19.77;;;7.45;;
74328;SDS011;62745;51.060;13.786;2022-11-20T05:05:28;15.40;;;6.68;;
74328;SDS011;62745;51.060;13.786;2022-11-20T05:07:55;16.75;;;6.97;;
74328;SDS011;62745;51.060;13.786;2022-11-20T05:10:22;15.80;;;6.25;;
74328;SDS011;62745;51.060;13.786;2022-11-20T05:12:47;16.73;;;7.27;;
74328;SDS011;62745;51.060;13.786;2022-11-20T05:15:12;17.60;;;6.60;;
74328;SDS011;62745;51.060;13.786;2022-11-20T05:17:38;16.05;;;6.15;;
74328;SDS011;62745;51.060;13.786;2022-11-20T05:20:03;15.27;;;6.77;;
74328;SDS011;62745;51.060;13.786;2022-11-20T05:22:29;18.02;;;7.15;;
74328;SDS011;62745;51.060;13.786;2022-11-20T05:24:54;18.45;;;7.03;;
74328;SDS011;62745;51.060;13.786;2022-11-20T05:27:19;18.97;;;7.93;;
74328;SDS011;62745;51.060;13.786;2022-11-20T05:29:45;17.95;;;7.13;;
74328;SDS011;62745;51.060;13.786;2022-11-20T05:32:10;16.27;;;6.63;;
74328;SDS011;62745;51.060;13.786;2022-11-20T05:34:35;17.25;;;6.75;;
74328;SDS011;62745;51.060;13.786;2022-11-20T05:37:02;20.42;;;7.35;;
74328;SDS011;62745;51.060;13.786;2022-11-20T05:39:27;19.60;;;7.50;;
74328;SDS011;62745;51.060;13.786;2022-11-20T05:41:52;21.40;;;9.23;;
74328;SDS011;62745;51.060;13.786;2022-11-20T05:44:44;17.17;;;7.70;;
74328;SDS011;62745;51.060;13.786;2022-11-20T05:47:09;20.65;;;9.02;;
74328;SDS011;62745;51.060;13.786;2022-11-20T05:49:34;20.87;;;7.53;;
74328;SDS011;62745;51.060;13.786;2022-11-20T05:51:59;17.73;;;6.87;;
74328;SDS011;62745;51.060;13.786;2022-11-20T05:54:25;24.57;;;8.60;;
74328;SDS011;62745;51.060;13.786;2022-11-20T05:56:50;20.90;;;8.25;;
74328;SDS011;62745;51.060;13.786;2022-11-20T05:59:15;18.43;;;8.33;;
74328;SDS011;62745;51.060;13.786;2022-11-20T06:01:41;22.50;;;7.97;;
74328;SDS011;62745;51.060;13.786;2022-11-20T06:04:06;21.85;;;7.93;;
74328;SDS011;62745;51.060;13.786;2022-11-20T06:06:31;18.35;;;7.32;;
74328;SDS011;62745;51.060;13.786;2022-11-20T06:08:57;16.37;;;7.13;;
74328;SDS011;62745;51.060;13.786;2022-11-20T06:11:23;20.38;;;7.40;;
74328;SDS011;62745;51.060;13.786;2022-11-20T06:13:49;20.92;;;8.27;;
74328;SDS011;62745;51.060;13.786;2022-11-20T06:16:15;24.98;;;8.90;;
74328;SDS011;62745;51.060;13.786;2022-11-20T06:18:43;25.15;;;10.10;;
74328;SDS011;62745;51.060;13.786;2022-11-20T06:21:15;23.92;;;9.07;;
74328;SDS011;62745;51.060;13.786;2022-11-20T06:23:42;19.25;;;7.47;;
74328;SDS011;62745;51.060;13.786;2022-11-20T06:26:09;21.75;;;8.25;;
74328;SDS011;62745;51.060;13.786;2022-11-20T06:28:37;21.98;;;8.00;;
74328;SDS011;62745;51.060;13.786;2022-11-20T06:31:03;18.70;;;6.97;;
74328;SDS011;62745;51.060;13.786;2022-11-20T06:33:29;23.25;;;8.38;;
74328;SDS011;62745;51.060;13.786;2022-11-20T06:35:58;19.80;;;8.48;;
74328;SDS011;62745;51.060;13.786;2022-11-20T06:38:25;21.42;;;7.68;;
74328;SDS011;62745;51.060;13.786;2022-11-20T06:40:51;19.42;;;8.10;;
74328;SDS011;62745;51.060;13.786;2022-11-20T06:43:16;18.73;;;7.93;;
74328;SDS011;62745;51.060;13.786;2022-11-20T06:45:42;21.83;;;7.97;;
74328;SDS011;62745;51.060;13.786;2022-11-20T06:48:07;21.95;;;8.02;;
74328;SDS011;62745;51.060;13.786;2022-11-20T06:50:34;20.92;;;7.85;;
74328;SDS011;62745;51.060;13.786;2022-11-20T06:53:02;18.80;;;7.40;;
74328;SDS011;62745;51.060;13.786;2022-11-20T06:55:28;24.95;;;8.55;;
74328;SDS011;62745;51.060;13.786;2022-11-20T06:57:54;21.90;;;8.48;;
74328;SDS011;62745;51.060;13.786;2022-11-20T07:00:19;17.60;;;7.80;;
74328;SDS011;62745;51.060;13.786;2022-11-20T07:02:44;22.92;;;8.02;;
74328;SDS011;62745;51.060;13.786;2022-11-20T07:05:10;22.80;;;8.23;;
74328;SDS011;62745;51.060;13.786;2022-11-20T07:07:35;21.15;;;8.40;;
74328;SDS011;62745;51.060;13.786;2022-11-20T07:10:00;19.17;;;7.90;;
74328;SDS011;62745;51.060;13.786;2022-11-20T07:12:26;20.27;;;8.10;;
74328;SDS011;62745;51.060;13.786;2022-11-20T07:14:51;26.10;;;7.60;;
74328;SDS011;62745;51.060;13.786;2022-11-20T07:17:16;23.40;;;8.70;;
74328;SDS011;62745;51.060;13.786;2022-11-20T07:19:41;21.70;;;7.90;;
74328;SDS011;62745;51.060;13.786;2022-11-20T07:22:07;20.52;;;8.35;;
74328;SDS011;62745;51.060;13.786;2022-11-20T07:24:33;22.80;;;8.10;;
74328;SDS011;62745;51.060;13.786;2022-11-20T07:26:58;24.40;;;9.43;;
74328;SDS011;62745;51.060;13.786;2022-11-20T07:29:24;25.48;;;9.00;;
74328;SDS011;62745;51.060;13.786;2022-11-20T07:31:49;19.67;;;8.13;;
74328;SDS011;62745;51.060;13.786;2022-11-20T07:34:15;25.88;;;8.73;;
74328;SDS011;62745;51.060;13.786;2022-11-20T07:36:40;22.70;;;7.83;;
74328;SDS011;62745;51.060;13.786;2022-11-20T07:39:05;21.03;;;8.73;;
74328;SDS011;62745;51.060;13.786;2022-11-20T07:41:31;19.30;;;7.90;;
74328;SDS011;62745;51.060;13.786;2022-11-20T07:43:56;22.40;;;9.40;;
74328;SDS011;62745;51.060;13.786;2022-11-20T07:46:21;21.95;;;8.48;;
74328;SDS011;62745;51.060;13.786;2022-11-20T07:51:51;22.50;;;8.52;;
74328;SDS011;62745;51.060;13.786;2022-11-20T07:54:18;23.58;;;8.20;;
74328;SDS011;62745;51.060;13.786;2022-11-20T07:56:44;21.55;;;8.63;;
74328;SDS011;62745;51.060;13.786;2022-11-20T07:59:09;19.65;;;7.85;;
74328;SDS011;62745;51.060;13.786;2022-11-20T08:01:36;22.33;;;8.32;;
74328;SDS011;62745;51.060;13.786;2022-11-20T08:04:02;23.05;;;8.95;;
74328;SDS011;62745;51.060;13.786;2022-11-20T08:06:28;26.08;;;10.32;;
74328;SDS011;62745;51.060;13.786;2022-11-20T08:08:53;20.63;;;8.27;;
74328;SDS011;62745;51.060;13.786;2022-11-20T08:11:18;22.80;;;9.73;;
74328;SDS011;62745;51.060;13.786;2022-11-20T08:14:02;18.42;;;8.40;;
74328;SDS011;62745;51.060;13.786;2022-11-20T08:16:36;21.88;;;8.10;;
74328;SDS011;62745;51.060;13.786;2022-11-20T08:19:02;24.50;;;9.30;;
74328;SDS011;62745;51.060;13.786;2022-11-20T08:21:28;28.33;;;9.50;;
74328;SDS011;62745;51.060;13.786;2022-11-20T08:23:53;25.45;;;10.93;;
74328;SDS011;62745;51.060;13.786;2022-11-20T08:26:18;26.65;;;10.77;;
74328;SDS011;62745;51.060;13.786;2022-11-20T08:28:45;29.75;;;10.15;;
74328;SDS011;62745;51.060;13.786;2022-11-20T08:31:10;27.47;;;11.67;;
74328;SDS011;62745;51.060;13.786;2022-11-20T08:33:36;30.17;;;10.90;;
74328;SDS011;62745;51.060;13.786;2022-11-20T08:36:02;25.75;;;11.30;;
74328;SDS011;62745;51.060;13.786;2022-11-20T08:38:29;26.63;;;10.98;;
74328;SDS011;62745;51.060;13.786;2022-11-20T08:40:58;28.35;;;10.73;;
74328;SDS011;62745;51.060;13.786;2022-11-20T08:43:42;28.10;;;12.07;;
74328;SDS011;62745;51.060;13.786;2022-11-20T08:46:07;28.53;;;11.43;;
74328;SDS011;62745;51.060;13.786;2022-11-20T08:48:33;26.17;;;11.63;;
74328;SDS011;62745;51.060;13.786;2022-11-20T08:50:58;33.23;;;12.93;;
74328;SDS011;62745;51.060;13.786;2022-11-20T08:53:24;28.83;;;11.40;;
74328;SDS011;62745;51.060;13.786;2022-11-20T08:55:49;25.80;;;11.40;;
74328;SDS011;62745;51.060;13.786;2022-11-20T08:58:15;28.40;;;11.07;;
74328;SDS011;62745;51.060;13.786;2022-11-20T09:00:40;28.90;;;12.13;;
74328;SDS011;62745;51.060;13.786;2022-11-20T09:03:05;27.83;;;12.73;;
74328;SDS011;62745;51.060;13.786;2022-11-20T09:05:31;24.93;;;11.27;;
74328;SDS011;62745;51.060;13.786;2022-11-20T09:07:57;27.60;;;11.40;;
74328;SDS011;62745;51.060;13.786;2022-11-20T09:10:23;34.83;;;12.60;;
74328;SDS011;62745;51.060;13.786;2022-11-20T09:12:48;29.73;;;12.23;;
74328;SDS011;62745;51.060;13.786;2022-11-20T09:15:14;25.38;;;10.98;;
74328;SDS011;62745;51.060;13.786;2022-11-20T09:17:39;26.73;;;10.20;;
74328;SDS011;62745;51.060;13.786;2022-11-20T09:20:04;26.27;;;10.67;;
74328;SDS011;62745;51.060;13.786;2022-11-20T09:22:30;23.83;;;9.75;;
74328;SDS011;62745;51.060;13.786;2022-11-20T09:24:55;21.73;;;9.27;;
74328;SDS011;62745;51.060;13.786;2022-11-20T09:27:20;20.20;;;8.37;;
74328;SDS011;62745;51.060;13.786;2022-11-20T09:29:46;22.33;;;9.15;;
74328;SDS011;62745;51.060;13.786;2022-11-20T09:32:11;18.77;;;9.15;;
74328;SDS011;62745;51.060;13.786;2022-11-20T09:34:37;18.53;;;8.53;;
74328;SDS011;62745;51.060;13.786;2022-11-20T09:37:02;18.17;;;8.07;;
74328;SDS011;62745;51.060;13.786;2022-11-20T09:39:27;19.80;;;8.37;;
74328;SDS011;62745;51.060;13.786;2022-11-20T09:47:23;16.58;;;7.38;;
74328;SDS011;62745;51.060;13.786;2022-11-20T09:55:48;15.02;;;6.82;;
74328;SDS011;62745;51.060;13.786;2022-11-20T09:58:22;16.63;;;7.75;;
74328;SDS011;62745;51.060;13.786;2022-11-20T10:00:55;18.50;;;7.78;;
74328;SDS011;62745;51.060;13.786;2022-11-20T10:04:12;17.92;;;8.65;;
74328;SDS011;62745;51.060;13.786;2022-11-20T10:06:21;20.10;;;8.00;;
74328;SDS011;62745;51.060;13.786;2022-11-20T10:08:56;16.70;;;7.68;;
74328;SDS011;62745;51.060;13.786;2022-11-20T10:11:47;17.80;;;7.47;;
74328;SDS011;62745;51.060;13.786;2022-11-20T10:17:08;17.33;;;7.47;;
74328;SDS011;62745;51.060;13.786;2022-11-20T10:19:51;17.35;;;8.23;;
74328;SDS011;62745;51.060;13.786;2022-11-20T10:22:34;15.30;;;7.35;;
74328;SDS011;62745;51.060;13.786;2022-11-20T10:25:26;15.63;;;7.07;;
74328;SDS011;62745;51.060;13.786;2022-11-20T10:28:07;14.57;;;6.93;;
74328;SDS011;62745;51.060;13.786;2022-11-20T10:30:41;13.43;;;5.70;;
74328;SDS011;62745;51.060;13.786;2022-11-20T10:33:19;14.15;;;5.95;;
74328;SDS011;62745;51.060;13.786;2022-11-20T10:35:52;11.32;;;5.30;;
74328;SDS011;62745;51.060;13.786;2022-11-20T10:38:25;14.10;;;5.90;;
74328;SDS011;62745;51.060;13.786;2022-11-20T10:41:02;10.73;;;5.30;;
74328;SDS011;62745;51.060;13.786;2022-11-20T10:43:50;13.68;;;5.70;;
74328;SDS011;62745;51.060;13.786;2022-11-20T10:46:21;11.88;;;5.80;;
74328;SDS011;62745;51.060;13.786;2022-11-20T10:48:49;14.82;;;5.93;;
74328;SDS011;62745;51.060;13.786;2022-11-20T10:51:30;15.10;;;6.38;;
74328;SDS011;62745;51.060;13.786;2022-11-20T10:54:08;14.70;;;6.28;;
74328;SDS011;62745;51.060;13.786;2022-11-20T10:57:00;14.77;;;6.85;;
74328;SDS011;62745;51.060;13.786;2022-11-20T10:59:52;13.23;;;6.35;;
74328;SDS011;62745;51.060;13.786;2022-11-20T11:02:33;13.70;;;6.70;;
74328;SDS011;62745;51.060;13.786;2022-11-20T11:05:06;13.52;;;5.95;;
74328;SDS011;62745;51.060;13.786;2022-11-20T11:07:38;14.43;;;6.85;;
74328;SDS011;62745;51.060;13.786;2022-11-20T11:12:49;13.48;;;6.30;;
74328;SDS011;62745;51.060;13.786;2022-11-20T11:15:23;14.43;;;6.50;;
74328;SDS011;62745;51.060;13.786;2022-11-20T11:17:51;14.52;;;6.28;;
74328;SDS011;62745;51.060;13.786;2022-11-20T11:20:17;14.32;;;6.22;;
74328;SDS011;62745;51.060;13.786;2022-11-20T11:25:28;17.67;;;6.13;;
74328;SDS011;62745;51.060;13.786;2022-11-20T11:27:57;14.35;;;6.05;;
74328;SDS011;62745;51.060;13.786;2022-11-20T11:30:24;12.20;;;5.57;;
74328;SDS011;62745;51.060;13.786;2022-11-20T11:33:01;13.60;;;6.15;;
74328;SDS011;62745;51.060;13.786;2022-11-20T11:35:31;11.75;;;5.68;;
74328;SDS011;62745;51.060;13.786;2022-11-20T11:38:04;14.13;;;6.28;;
74328;SDS011;62745;51.060;13.786;2022-11-20T11:40:35;14.60;;;5.47;;
74328;SDS011;62745;51.060;13.786;2022-11-20T11:43:06;11.77;;;5.28;;
74328;SDS011;62745;51.060;13.786;2022-11-20T11:46:01;11.77;;;4.70;;
74328;SDS011;62745;51.060;13.786;2022-11-20T11:48:27;11.90;;;5.60;;
74328;SDS011;62745;51.060;13.786;2022-11-20T11:50:52;10.83;;;5.23;;
74328;SDS011;62745;51.060;13.786;2022-11-20T11:53:19;10.57;;;5.22;;
74328;SDS011;62745;51.060;13.786;2022-11-20T11:55:47;11.52;;;5.07;;
74328;SDS011;62745;51.060;13.786;2022-11-20T12:07:13;10.93;;;5.03;;
74328;SDS011;62745;51.060;13.786;2022-11-20T12:09:48;10.95;;;4.70;;
74328;SDS011;62745;51.060;13.786;2022-11-20T12:12:20;11.27;;;5.10;;
74328;SDS011;62745;51.060;13.786;2022-11-20T12:17:21;9.75;;;4.95;;
74328;SDS011;62745;51.060;13.786;2022-11-20T12:19:46;11.10;;;4.57;;
74328;SDS011;62745;51.060;13.786;2022-11-20T12:25:22;12.65;;;5.38;;
74328;SDS011;62745;51.060;13.786;2022-11-20T12:30:24;12.52;;;4.95;;
74328;SDS011;62745;51.060;13.786;2022-11-20T12:36:11;9.35;;;3.78;;
74328;SDS011;62745;51.060;13.786;2022-11-20T12:41:57;12.63;;;5.78;;
74328;SDS011;62745;51.060;13.786;2022-11-20T12:45:06;12.38;;;4.63;;
74328;SDS011;62745;51.060;13.786;2022-11-20T12:52:56;10.32;;;5.00;;
74328;SDS011;62745;51.060;13.786;2022-11-20T13:00:47;9.13;;;3.78;;
74328;SDS011;62745;51.060;13.786;2022-11-20T13:03:34;9.57;;;3.85;;
74328;SDS011;62745;51.060;13.786;2022-11-20T13:06:13;9.02;;;4.78;;
74328;SDS011;62745;51.060;13.786;2022-11-20T13:08:48;10.88;;;4.32;;
74328;SDS011;62745;51.060;13.786;2022-11-20T13:11:25;11.15;;;4.78;;
74328;SDS011;62745;51.060;13.786;2022-11-20T13:14:16;12.52;;;5.15;;
74328;SDS011;62745;51.060;13.786;2022-11-20T13:17:20;9.85;;;4.28;;
74328;SDS011;62745;51.060;13.786;2022-11-20T13:19:55;12.50;;;4.80;;
74328;SDS011;62745;51.060;13.786;2022-11-20T13:22:24;10.35;;;4.40;;
74328;SDS011;62745;51.060;13.786;2022-11-20T13:25:10;13.30;;;5.00;;
74328;SDS011;62745;51.060;13.786;2022-11-20T13:27:46;9.82;;;4.65;;
74328;SDS011;62745;51.060;13.786;2022-11-20T13:30:14;9.30;;;4.43;;
74328;SDS011;62745;51.060;13.786;2022-11-20T13:32:49;8.98;;;3.85;;
74328;SDS011;62745;51.060;13.786;2022-11-20T13:38:03;9.45;;;4.25;;
74328;SDS011;62745;51.060;13.786;2022-11-20T13:46:07;8.93;;;3.80;;
74328;SDS011;62745;51.060;13.786;2022-11-20T13:48:34;9.35;;;4.28;;
74328;SDS011;62745;51.060;13.786;2022-11-20T13:54:03;8.38;;;3.28;;
74328;SDS011;62745;51.060;13.786;2022-11-20T13:57:05;8.23;;;4.13;;
74328;SDS011;62745;51.060;13.786;2022-11-20T14:02:26;7.15;;;3.03;;
74328;SDS011;62745;51.060;13.786;2022-11-20T14:04:56;8.57;;;4.45;;
74328;SDS011;62745;51.060;13.786;2022-11-20T14:07:25;8.68;;;3.42;;
74328;SDS011;62745;51.060;13.786;2022-11-20T14:09:57;8.80;;;3.88;;
74328;SDS011;62745;51.060;13.786;2022-11-20T14:12:32;9.63;;;4.50;;
74328;SDS011;62745;51.060;13.786;2022-11-20T14:14:58;8.80;;;4.20;;
74328;SDS011;62745;51.060;13.786;2022-11-20T14:17:29;8.82;;;3.65;;
74328;SDS011;62745;51.060;13.786;2022-11-20T14:19:58;8.98;;;4.20;;
74328;SDS011;62745;51.060;13.786;2022-11-20T14:22:27;10.75;;;4.53;;
74328;SDS011;62745;51.060;13.786;2022-11-20T14:27:27;12.25;;;4.57;;
74328;SDS011;62745;51.060;13.786;2022-11-20T14:29:54;10.27;;;4.93;;
74328;SDS011;62745;51.060;13.786;2022-11-20T14:32:22;11.90;;;4.43;;
74328;SDS011;62745;51.060;13.786;2022-11-20T14:34:53;9.30;;;4.00;;
74328;SDS011;62745;51.060;13.786;2022-11-20T14:37:23;9.45;;;4.38;;
74328;SDS011;62745;51.060;13.786;2022-11-20T14:39:54;11.25;;;4.40;;
74328;SDS011;62745;51.060;13.786;2022-11-20T14:44:48;12.10;;;4.95;;
74328;SDS011;62745;51.060;13.786;2022-11-20T14:47:16;9.60;;;3.97;;
74328;SDS011;62745;51.060;13.786;2022-11-20T14:49:46;11.40;;;5.20;;
74328;SDS011;62745;51.060;13.786;2022-11-20T14:52:17;12.73;;;5.18;;
74328;SDS011;62745;51.060;13.786;2022-11-20T14:54:51;12.13;;;5.47;;
74328;SDS011;62745;51.060;13.786;2022-11-20T14:57:25;10.95;;;4.68;;
74328;SDS011;62745;51.060;13.786;2022-11-20T15:00:37;12.20;;;5.28;;
74328;SDS011;62745;51.060;13.786;2022-11-20T15:02:41;10.93;;;4.97;;
74328;SDS011;62745;51.060;13.786;2022-11-20T15:05:08;10.82;;;4.90;;
74328;SDS011;62745;51.060;13.786;2022-11-20T15:07:35;13.35;;;5.80;;
74328;SDS011;62745;51.060;13.786;2022-11-20T15:10:06;13.35;;;5.68;;
74328;SDS011;62745;51.060;13.786;2022-11-20T15:12:37;13.68;;;4.95;;
74328;SDS011;62745;51.060;13.786;2022-11-20T15:15:05;12.25;;;4.85;;
74328;SDS011;62745;51.060;13.786;2022-11-20T15:17:34;15.65;;;4.88;;
74328;SDS011;62745;51.060;13.786;2022-11-20T15:20:03;11.40;;;5.07;;
74328;SDS011;62745;51.060;13.786;2022-11-20T15:22:35;10.85;;;4.32;;
74328;SDS011;62745;51.060;13.786;2022-11-20T15:25:01;12.18;;;5.47;;
74328;SDS011;62745;51.060;13.786;2022-11-20T15:27:26;8.97;;;4.50;;
74328;SDS011;62745;51.060;13.786;2022-11-20T15:29:51;10.43;;;4.73;;
74328;SDS011;62745;51.060;13.786;2022-11-20T15:32:17;14.45;;;5.47;;
74328;SDS011;62745;51.060;13.786;2022-11-20T15:34:42;11.53;;;5.30;;
74328;SDS011;62745;51.060;13.786;2022-11-20T15:37:07;13.37;;;5.40;;
74328;SDS011;62745;51.060;13.786;2022-11-20T15:39:33;9.67;;;5.10;;
74328;SDS011;62745;51.060;13.786;2022-11-20T15:41:58;12.40;;;6.07;;
74328;SDS011;62745;51.060;13.786;2022-11-20T15:44:23;12.07;;;5.93;;
74328;SDS011;62745;51.060;13.786;2022-11-20T15:46:49;11.32;;;4.80;;
74328;SDS011;62745;51.060;13.786;2022-11-20T15:49:15;13.88;;;5.78;;
74328;SDS011;62745;51.060;13.786;2022-11-20T15:51:44;11.98;;;5.05;;
74328;SDS011;62745;51.060;13.786;2022-11-20T15:54:12;11.75;;;4.97;;
74328;SDS011;62745;51.060;13.786;2022-11-20T15:56:39;16.38;;;6.85;;
74328;SDS011;62745;51.060;13.786;2022-11-20T15:59:05;12.00;;;5.40;;
74328;SDS011;62745;51.060;13.786;2022-11-20T16:01:30;14.23;;;5.28;;
74328;SDS011;62745;51.060;13.786;2022-11-20T16:03:56;13.82;;;5.80;;
74328;SDS011;62745;51.060;13.786;2022-11-20T16:06:21;13.13;;;5.73;;
74328;SDS011;62745;51.060;13.786;2022-11-20T16:08:46;11.60;;;5.30;;